createdAt,value
2019-04-06T00:00:24.394Z,10.90
2019-04-06T00:02:53.810Z,10.90
2019-04-06T00:05:23.206Z,10.90
2019-04-06T00:07:52.541Z,10.90
2019-04-06T00:10:21.882Z,10.80
2019-04-06T00:12:51.534Z,10.80
2019-04-06T00:15:20.881Z,10.80
2019-04-06T00:17:50.216Z,10.80
2019-04-06T00:20:19.583Z,10.70
2019-04-06T00:22:48.985Z,10.70
2019-04-06T00:25:18.410Z,10.70
2019-04-06T00:27:47.736Z,10.70
2019-04-06T00:30:18.102Z,10.70
2019-04-06T00:32:49.086Z,10.70
2019-04-06T00:35:18.422Z,10.60
2019-04-06T00:37:47.822Z,10.60
2019-04-06T00:40:17.305Z,10.60
2019-04-06T00:42:47.634Z,10.50
2019-04-06T00:45:17.004Z,10.50
2019-04-06T00:47:46.335Z,10.40
2019-04-06T00:50:15.918Z,10.40
2019-04-06T00:52:45.242Z,10.40
2019-04-06T00:55:14.653Z,10.40
2019-04-06T00:57:43.993Z,10.30
2019-04-06T01:00:14.064Z,10.30
2019-04-06T01:02:43.538Z,10.30
2019-04-06T01:05:13.121Z,10.20
2019-04-06T01:07:42.451Z,10.20
2019-04-06T01:10:11.938Z,10.20
2019-04-06T01:12:41.294Z,10.10
2019-04-06T01:15:10.970Z,10.10
2019-04-06T01:17:40.373Z,10.00
2019-04-06T01:20:10.140Z,10.00
2019-04-06T01:22:39.478Z,10.00
2019-04-06T01:25:09.327Z,9.90
2019-04-06T01:27:38.653Z,9.90
2019-04-06T01:30:09.043Z,9.90
2019-04-06T01:32:38.433Z,9.80
2019-04-06T01:35:07.786Z,9.80
2019-04-06T01:37:37.102Z,9.70
2019-04-06T01:40:07.117Z,9.70
2019-04-06T01:42:36.502Z,9.70
2019-04-06T01:45:07.285Z,9.70
2019-04-06T01:47:36.610Z,9.60
2019-04-06T01:50:06.085Z,9.60
2019-04-06T01:52:35.497Z,9.60
2019-04-06T01:55:05.779Z,9.50
2019-04-06T01:57:35.106Z,9.50
2019-04-06T02:00:08.359Z,9.50
2019-04-06T02:02:39.364Z,9.40
2019-04-06T02:05:09.055Z,9.40
2019-04-06T02:07:38.778Z,9.40
2019-04-06T02:10:08.299Z,9.30
2019-04-06T02:12:37.720Z,9.30
2019-04-06T02:15:07.277Z,9.30
2019-04-06T02:17:36.594Z,9.20
2019-04-06T02:20:06.406Z,9.20
2019-04-06T02:22:36.701Z,9.20
2019-04-06T02:25:07.512Z,9.10
2019-04-06T02:27:36.913Z,9.00
2019-04-06T02:30:12.469Z,9.00
2019-04-06T02:32:43.493Z,8.90
2019-04-06T02:35:20.280Z,8.90
2019-04-06T02:37:54.330Z,8.80
2019-04-06T02:40:28.004Z,8.80
2019-04-06T02:43:05.088Z,8.70
2019-04-06T02:45:34.550Z,8.70
2019-04-06T02:48:03.937Z,8.70
2019-04-06T02:50:33.299Z,8.60
2019-04-06T02:53:02.627Z,8.60
2019-04-06T02:55:31.943Z,8.60
2019-04-06T02:58:01.296Z,8.50
2019-04-06T03:00:30.836Z,8.50
2019-04-06T03:03:00.320Z,8.40
2019-04-06T03:05:29.709Z,8.40
2019-04-06T03:07:59.178Z,8.40
2019-04-06T03:10:28.541Z,8.30
2019-04-06T03:12:57.936Z,8.30
2019-04-06T03:15:27.282Z,8.30
2019-04-06T03:17:56.746Z,8.20
2019-04-06T03:20:26.123Z,8.20
2019-04-06T03:22:55.471Z,8.20
2019-04-06T03:25:24.797Z,8.10
2019-04-06T03:27:54.143Z,8.10
2019-04-06T03:30:23.535Z,8.00
2019-04-06T03:32:52.880Z,8.00
2019-04-06T03:35:22.309Z,8.00
2019-04-06T03:37:51.766Z,7.90
2019-04-06T03:40:21.145Z,7.90
2019-04-06T03:42:50.497Z,7.90
2019-04-06T03:45:19.831Z,7.90
2019-04-06T03:47:49.333Z,7.90
2019-04-06T03:50:19.046Z,7.80
2019-04-06T03:52:48.536Z,7.80
2019-04-06T03:55:17.919Z,7.80
2019-04-06T03:57:47.468Z,7.80
2019-04-06T04:00:18.424Z,7.80
2019-04-06T04:02:47.886Z,7.80
2019-04-06T04:05:17.211Z,7.80
2019-04-06T04:07:46.582Z,7.80
2019-04-06T04:10:27.727Z,7.80
2019-04-06T04:12:57.184Z,7.70
2019-04-06T04:15:26.510Z,7.70
2019-04-06T04:17:55.941Z,7.70
2019-04-06T04:20:25.339Z,7.60
2019-04-06T04:22:54.746Z,7.60
2019-04-06T04:25:24.127Z,7.60
2019-04-06T04:27:54.127Z,7.50
2019-04-06T04:30:32.515Z,7.50
2019-04-06T04:32:54.749Z,7.50
2019-04-06T04:35:24.083Z,7.50
2019-04-06T04:37:53.556Z,7.40
2019-04-06T04:40:22.946Z,7.40
2019-04-06T04:42:52.583Z,7.40
2019-04-06T04:45:21.968Z,7.40
2019-04-06T04:47:51.317Z,7.40
2019-04-06T04:50:21.717Z,7.40
2019-04-06T04:52:51.119Z,7.30
2019-04-06T04:55:20.446Z,7.30
2019-04-06T04:57:49.784Z,7.30
2019-04-06T05:00:19.369Z,7.30
2019-04-06T05:02:48.706Z,7.20
2019-04-06T05:05:18.064Z,7.20
2019-04-06T05:07:47.375Z,7.20
2019-04-06T05:10:16.730Z,7.20
2019-04-06T05:12:46.034Z,7.10
2019-04-06T05:15:21.097Z,7.20
2019-04-06T05:17:50.479Z,7.10
2019-04-06T05:20:19.839Z,7.10
2019-04-06T05:22:49.350Z,7.20
2019-04-06T05:25:18.685Z,7.20
2019-04-06T05:27:52.681Z,7.10
2019-04-06T05:30:19.135Z,7.20
2019-04-06T05:32:48.459Z,7.20
2019-04-06T05:35:17.797Z,7.20
2019-04-06T05:37:47.126Z,7.20
2019-04-06T05:40:16.467Z,7.20
2019-04-06T05:42:45.786Z,7.20
2019-04-06T05:45:15.134Z,7.30
2019-04-06T05:47:44.547Z,7.20
2019-04-06T05:50:14.193Z,7.30
2019-04-06T05:52:43.615Z,7.30
2019-04-06T05:55:13.027Z,7.30
2019-04-06T05:57:42.350Z,7.40
2019-04-06T06:00:12.058Z,7.40
2019-04-06T06:02:41.867Z,7.50
2019-04-06T06:05:12.495Z,7.50
2019-04-06T06:07:41.810Z,7.60
2019-04-06T06:10:11.227Z,7.70
2019-04-06T06:12:40.626Z,7.80
2019-04-06T06:15:10.211Z,7.90
2019-04-06T06:17:39.609Z,8.00
2019-04-06T06:20:09.694Z,8.10
2019-04-06T06:22:39.143Z,8.20
2019-04-06T06:25:09.241Z,8.30
2019-04-06T06:27:38.569Z,8.40
2019-04-06T06:30:08.443Z,8.50
2019-04-06T06:32:37.861Z,8.60
2019-04-06T06:35:07.658Z,8.70
2019-04-06T06:37:37.207Z,8.70
2019-04-06T06:40:07.976Z,8.90
2019-04-06T06:42:37.309Z,9.00
2019-04-06T06:45:07.015Z,9.20
2019-04-06T06:47:36.407Z,9.40
2019-04-06T06:50:07.297Z,9.60
2019-04-06T06:52:36.634Z,9.90
2019-04-06T06:55:06.233Z,10.20
2019-04-06T06:57:35.632Z,10.40
2019-04-06T07:00:06.607Z,10.70
2019-04-06T07:02:35.934Z,11.00
2019-04-06T07:05:06.402Z,11.20
2019-04-06T07:07:35.752Z,11.40
2019-04-06T07:10:07.005Z,11.70
2019-04-06T07:12:37.398Z,12.00
2019-04-06T07:15:08.351Z,12.20
2019-04-06T07:17:37.828Z,12.40
2019-04-06T07:20:08.191Z,12.60
2019-04-06T07:22:37.590Z,12.70
2019-04-06T07:25:07.499Z,12.70
2019-04-06T07:27:36.908Z,12.70
2019-04-06T07:30:07.781Z,12.60
2019-04-06T07:32:37.138Z,12.60
2019-04-06T07:35:06.726Z,12.50
2019-04-06T07:37:36.074Z,12.40
2019-04-06T07:40:08.934Z,12.30
2019-04-06T07:42:38.276Z,12.30
2019-04-06T07:45:08.166Z,12.30
2019-04-06T07:47:37.563Z,12.30
2019-04-06T07:50:08.091Z,12.30
2019-04-06T07:52:38.505Z,12.30
2019-04-06T07:55:08.064Z,12.30
2019-04-06T07:57:37.434Z,12.40
2019-04-06T08:00:07.804Z,12.50
2019-04-06T08:02:37.168Z,12.80
2019-04-06T08:05:07.657Z,13.00
2019-04-06T08:07:37.070Z,13.40
2019-04-06T08:10:06.847Z,13.70
2019-04-06T08:12:36.185Z,14.10
2019-04-06T08:15:07.979Z,14.50
2019-04-06T08:17:37.582Z,15.00
2019-04-06T08:20:09.675Z,15.40
2019-04-06T08:22:39.240Z,15.80
2019-04-06T08:25:09.084Z,16.20
2019-04-06T08:27:38.504Z,16.60
2019-04-06T08:30:09.477Z,17.00
2019-04-06T08:32:38.929Z,17.30
2019-04-06T08:35:08.850Z,17.60
2019-04-06T08:37:38.267Z,17.80
2019-04-06T08:40:07.787Z,17.90
2019-04-06T08:42:37.147Z,18.10
2019-04-06T08:45:06.909Z,18.10
2019-04-06T08:47:36.255Z,18.20
2019-04-06T08:50:09.681Z,18.20
2019-04-06T08:52:39.046Z,18.20
2019-04-06T08:55:08.545Z,18.20
2019-04-06T08:57:37.953Z,18.40
2019-04-06T09:00:07.939Z,18.60
2019-04-06T09:02:37.286Z,18.80
2019-04-06T09:05:09.593Z,19.00
2019-04-06T09:07:40.784Z,19.20
2019-04-06T09:10:10.030Z,19.20
2019-04-06T09:12:39.433Z,19.30
2019-04-06T09:15:09.993Z,19.40
2019-04-06T09:17:39.502Z,19.40
2019-04-06T09:20:10.106Z,19.50
2019-04-06T09:22:39.526Z,19.60
2019-04-06T09:25:09.125Z,19.60
2019-04-06T09:27:38.670Z,19.60
2019-04-06T09:30:08.671Z,19.60
2019-04-06T09:32:38.073Z,19.60
2019-04-06T09:35:07.650Z,19.60
2019-04-06T09:37:36.998Z,19.60
2019-04-06T09:40:07.762Z,19.50
2019-04-06T09:42:37.131Z,19.60
2019-04-06T09:45:24.385Z,19.60
2019-04-06T09:47:55.445Z,19.70
2019-04-06T09:50:34.932Z,19.90
2019-04-06T09:53:22.474Z,20.10
2019-04-06T09:56:08.452Z,20.20
2019-04-06T09:58:45.366Z,20.40
2019-04-06T10:01:38.933Z,20.50
2019-04-06T10:04:17.677Z,20.70
2019-04-06T10:06:48.718Z,20.70
2019-04-06T10:09:36.157Z,20.90
2019-04-06T10:12:07.131Z,21.00
2019-04-06T10:14:44.260Z,21.10
2019-04-06T10:17:17.695Z,21.20
2019-04-06T10:19:57.676Z,21.30
2019-04-06T10:22:28.672Z,21.30
2019-04-06T10:25:10.994Z,21.30
2019-04-06T10:27:50.462Z,21.30
2019-04-06T10:30:34.941Z,21.20
2019-04-06T10:33:08.878Z,21.10
2019-04-06T10:35:48.653Z,21.00
2019-04-06T10:38:19.634Z,20.80
2019-04-06T10:41:02.547Z,20.70
2019-04-06T10:43:51.557Z,20.60
2019-04-06T10:46:40.789Z,20.60
2019-04-06T10:49:14.605Z,20.70
2019-04-06T10:51:48.741Z,20.70
2019-04-06T10:54:31.782Z,20.80
2019-04-06T10:57:09.829Z,20.90
2019-04-06T11:00:00.232Z,20.90
2019-04-06T11:02:38.290Z,20.90
2019-04-06T11:05:18.472Z,20.90
2019-04-06T11:07:49.433Z,20.80
2019-04-06T11:10:32.952Z,20.80
2019-04-06T11:13:12.881Z,20.70
2019-04-06T11:15:59.141Z,20.60
2019-04-06T11:18:46.524Z,20.50
2019-04-06T11:21:33.625Z,20.50
2019-04-06T11:24:04.741Z,20.50
2019-04-06T11:26:38.526Z,20.50
2019-04-06T11:29:09.553Z,20.60
2019-04-06T11:31:43.688Z,20.70
2019-04-06T11:34:32.979Z,20.70
2019-04-06T11:37:20.364Z,20.70
2019-04-06T11:39:51.343Z,20.60
2019-04-06T11:42:22.322Z,20.50
2019-04-06T11:45:10.710Z,20.50
2019-04-06T11:47:57.878Z,20.40
2019-04-06T11:50:34.596Z,20.40
2019-04-06T11:53:14.910Z,20.40
2019-04-06T11:56:00.994Z,20.30
2019-04-06T11:58:44.126Z,20.30
2019-04-06T12:01:17.849Z,20.20
2019-04-06T12:04:05.286Z,20.20
2019-04-06T12:06:38.774Z,20.20
2019-04-06T12:09:09.806Z,20.10
2019-04-06T12:11:47.293Z,20.10
2019-04-06T12:14:21.149Z,20.00
2019-04-06T12:17:01.224Z,20.00
2019-04-06T12:19:48.799Z,19.90
2019-04-06T12:22:19.773Z,19.90
2019-04-06T12:24:50.758Z,19.90
2019-04-06T12:27:38.432Z,19.80
2019-04-06T12:30:36.622Z,19.90
2019-04-06T12:32:57.972Z,19.90
2019-04-06T12:35:44.226Z,19.90
2019-04-06T12:38:28.088Z,19.80
2019-04-06T12:40:59.058Z,19.80
2019-04-06T12:43:44.792Z,19.80
2019-04-06T12:46:30.776Z,19.80
2019-04-06T12:49:02.135Z,19.70
2019-04-06T12:51:39.555Z,19.70
2019-04-06T12:54:22.235Z,19.70
2019-04-06T12:57:11.320Z,19.70
2019-04-06T12:59:58.943Z,19.70
2019-04-06T13:02:30.025Z,19.70
2019-04-06T13:05:01.049Z,19.70
2019-04-06T13:07:48.340Z,19.70
2019-04-06T13:10:28.151Z,19.60
2019-04-06T13:13:07.899Z,19.60
2019-04-06T13:15:41.612Z,19.60
2019-04-06T13:18:15.498Z,19.70
2019-04-06T13:20:46.486Z,19.70
2019-04-06T13:23:20.403Z,19.70
2019-04-06T13:25:57.552Z,19.70
2019-04-06T13:28:37.661Z,19.70
2019-04-06T13:31:26.954Z,19.80
2019-04-06T13:33:57.917Z,19.80
2019-04-06T13:36:40.793Z,19.90
2019-04-06T13:39:31.132Z,19.90
2019-04-06T13:42:02.316Z,19.90
2019-04-06T13:44:42.362Z,19.90
2019-04-06T13:47:16.322Z,19.90
2019-04-06T13:49:53.249Z,19.90
2019-04-06T13:52:33.559Z,19.90
2019-04-06T13:55:04.541Z,19.90
2019-04-06T13:57:44.422Z,19.90
2019-04-06T14:00:15.551Z,19.90
2019-04-06T14:03:03.079Z,19.90
2019-04-06T14:05:45.822Z,19.90
2019-04-06T14:08:16.817Z,19.90
2019-04-06T14:10:50.721Z,20.00
2019-04-06T14:13:24.529Z,19.90
2019-04-06T14:16:13.853Z,20.00
2019-04-06T14:19:00.955Z,20.00
2019-04-06T14:21:35.853Z,20.00
2019-04-06T14:24:25.239Z,20.00
2019-04-06T14:26:56.209Z,20.00
2019-04-06T14:29:43.907Z,20.00
2019-04-06T14:32:17.424Z,20.00
2019-04-06T14:34:48.413Z,20.10
2019-04-06T14:37:19.447Z,20.10
2019-04-06T14:40:06.694Z,20.10
2019-04-06T14:42:37.674Z,20.10
2019-04-06T14:45:15.025Z,20.20
2019-04-06T14:47:46.006Z,20.10
2019-04-06T14:50:23.134Z,20.20
2019-04-06T14:53:10.522Z,20.20
2019-04-06T14:55:50.555Z,20.20
2019-04-06T14:58:21.639Z,20.30
2019-04-06T15:01:07.599Z,20.30
2019-04-06T15:03:38.607Z,20.20
2019-04-06T15:06:15.398Z,20.20
2019-04-06T15:14:52.018Z,20.00
2019-04-06T15:17:40.104Z,20.00
2019-04-06T15:20:17.466Z,19.90
2019-04-06T15:22:51.267Z,19.90
2019-04-06T15:25:40.390Z,19.80
2019-04-06T15:28:11.762Z,19.80
2019-04-06T15:30:58.135Z,19.80
2019-04-06T15:33:45.877Z,19.80
2019-04-06T15:36:22.785Z,19.70
2019-04-06T15:39:08.838Z,19.70
2019-04-06T15:41:55.367Z,19.70
2019-04-06T15:44:36.867Z,19.70
2019-04-06T15:47:07.974Z,19.70
2019-04-06T15:49:41.781Z,19.70
2019-04-06T15:52:25.066Z,19.70
2019-04-06T15:54:56.107Z,19.70
2019-04-06T15:57:33.264Z,19.70
2019-04-06T16:00:07.937Z,19.70
2019-04-06T16:02:38.989Z,19.70
2019-04-06T16:05:10.059Z,19.60
2019-04-06T16:07:51.508Z,19.60
2019-04-06T16:10:37.758Z,19.60
2019-04-06T16:13:14.500Z,19.60
2019-04-06T16:15:51.167Z,19.60
2019-04-06T16:18:25.036Z,19.60
2019-04-06T16:20:58.288Z,19.50
2019-04-06T16:23:34.732Z,19.50
2019-04-06T16:26:12.917Z,19.50
2019-04-06T16:28:43.877Z,19.50
2019-04-06T16:31:32.744Z,19.50
2019-04-06T16:34:19.967Z,19.50
2019-04-06T16:36:59.894Z,19.50
2019-04-06T16:39:47.500Z,19.50
2019-04-06T16:42:21.711Z,19.50
2019-04-06T16:44:52.782Z,19.40
2019-04-06T16:47:23.738Z,19.40
2019-04-06T16:49:54.812Z,19.40
2019-04-06T16:52:28.729Z,19.40
2019-04-06T16:55:16.074Z,19.40
2019-04-06T16:57:50.010Z,19.40
2019-04-06T17:00:29.752Z,19.40
2019-04-06T17:03:16.908Z,19.40
2019-04-06T17:06:04.197Z,19.30
2019-04-06T17:08:41.302Z,19.40
2019-04-06T17:11:28.972Z,19.30
2019-04-06T17:14:15.209Z,19.30
2019-04-06T17:16:52.166Z,19.20
2019-04-06T17:19:23.156Z,19.20
2019-04-06T17:21:56.998Z,19.20
2019-04-06T17:24:33.997Z,19.20
2019-04-06T17:27:10.801Z,19.20
2019-04-06T17:29:58.477Z,19.10
2019-04-06T17:32:36.871Z,19.10
2019-04-06T17:35:05.997Z,19.10
2019-04-06T17:37:36.981Z,19.10
2019-04-06T17:40:14.405Z,19.00
2019-04-06T17:42:45.848Z,19.00
2019-04-06T17:45:19.668Z,18.90
2019-04-06T17:47:59.998Z,18.90
2019-04-06T17:50:31.142Z,18.80
2019-04-06T17:53:08.238Z,18.80
2019-04-06T17:55:55.382Z,18.70
2019-04-06T17:58:26.958Z,18.60
2019-04-06T18:01:00.900Z,18.60
2019-04-06T18:03:40.845Z,18.50
2019-04-06T18:06:11.891Z,18.50
2019-04-06T18:08:46.291Z,18.40
2019-04-06T18:11:20.537Z,18.30
2019-04-06T18:13:49.958Z,18.30
2019-04-06T18:16:22.109Z,18.20
2019-04-06T18:18:51.447Z,18.10
2019-04-06T18:21:20.761Z,18.10
2019-04-06T18:23:50.608Z,18.00
2019-04-06T18:26:20.025Z,17.90
2019-04-06T18:28:49.374Z,17.90
2019-04-06T18:31:29.422Z,17.80
2019-04-06T18:33:59.155Z,17.70
2019-04-06T18:36:39.947Z,17.60
2019-04-06T18:39:15.249Z,17.50
2019-04-06T18:41:44.626Z,17.50
2019-04-06T18:44:13.994Z,17.40
2019-04-06T18:46:43.760Z,17.30
2019-04-06T18:49:14.534Z,17.20
2019-04-06T18:51:43.874Z,17.10
2019-04-06T18:54:13.216Z,17.10
2019-04-06T18:56:42.547Z,17.00
2019-04-06T18:59:12.315Z,16.90
2019-04-06T19:01:41.634Z,16.90
2019-04-06T19:04:10.978Z,16.80
2019-04-06T19:06:40.307Z,16.70
2019-04-06T19:09:20.640Z,16.70
2019-04-06T19:11:44.470Z,16.60
2019-04-06T19:14:12.372Z,16.50
2019-04-06T19:16:42.155Z,16.50
2019-04-06T19:19:11.697Z,16.40
2019-04-06T19:21:42.550Z,16.40
2019-04-06T19:24:12.221Z,16.40
2019-04-06T19:26:41.533Z,16.30
2019-04-06T19:29:10.938Z,16.30
2019-04-06T19:31:41.346Z,16.20
2019-04-06T19:34:10.686Z,16.20
2019-04-06T19:36:40.008Z,16.10
2019-04-06T19:39:12.424Z,16.10
2019-04-06T19:41:41.882Z,16.00
2019-04-06T19:44:11.358Z,16.00
2019-04-06T19:46:40.742Z,15.90
2019-04-06T19:49:10.089Z,15.80
2019-04-06T19:51:40.751Z,15.80
2019-04-06T19:54:10.767Z,15.70
2019-04-06T19:56:40.185Z,15.70
2019-04-06T19:59:09.825Z,15.60
2019-04-06T20:01:39.253Z,15.50
2019-04-06T20:04:08.617Z,15.50
2019-04-06T20:06:38.010Z,15.40
2019-04-06T20:09:08.583Z,15.30
2019-04-06T20:11:38.191Z,15.30
2019-04-06T20:14:07.649Z,15.30
2019-04-06T20:16:37.276Z,15.20
2019-04-06T20:19:06.927Z,15.20
2019-04-06T20:21:36.406Z,15.10
2019-04-06T20:24:06.271Z,15.10
2019-04-06T20:26:36.051Z,15.00
2019-04-06T20:29:06.331Z,15.00
2019-04-06T20:31:36.233Z,14.90
2019-04-06T20:34:06.229Z,14.90
2019-04-06T20:36:35.653Z,14.90
2019-04-06T20:39:07.700Z,14.80
2019-04-06T20:41:38.136Z,14.80
2019-04-06T20:44:07.706Z,14.70
2019-04-06T20:46:37.561Z,14.70
2019-04-06T20:49:07.625Z,14.70
2019-04-06T20:51:37.171Z,14.60
2019-04-06T20:54:06.516Z,14.50
2019-04-06T20:56:36.181Z,14.50
2019-04-06T20:59:05.795Z,14.50
2019-04-06T21:01:35.278Z,14.40
2019-04-06T21:04:04.751Z,14.40
2019-04-06T21:06:34.811Z,14.40
2019-04-06T21:09:08.730Z,14.40
2019-04-06T21:11:38.270Z,14.30
2019-04-06T21:14:07.919Z,14.30
2019-04-06T21:16:37.878Z,14.30
2019-04-06T21:19:07.296Z,14.30
2019-04-06T21:21:36.880Z,14.20
2019-04-06T21:24:06.793Z,14.20
2019-04-06T21:26:36.847Z,14.20
2019-04-06T21:29:06.406Z,14.20
2019-04-06T21:31:36.267Z,14.20
2019-04-06T21:34:12.112Z,14.20
2019-04-06T21:36:37.032Z,14.10
2019-04-06T21:39:07.711Z,14.20
2019-04-06T21:41:37.431Z,14.10
2019-04-06T21:44:06.825Z,14.10
2019-04-06T21:46:36.167Z,14.10
2019-04-06T21:49:06.085Z,14.10
2019-04-06T21:51:35.622Z,14.10
2019-04-06T21:54:05.115Z,14.10
2019-04-06T21:56:34.452Z,14.10
2019-04-06T21:59:03.781Z,14.10
2019-04-06T22:01:33.439Z,14.20
2019-04-06T22:04:03.155Z,14.20
2019-04-06T22:06:32.633Z,14.20
2019-04-06T22:09:02.705Z,14.20
2019-04-06T22:11:34.135Z,14.20
2019-04-06T22:14:04.401Z,14.20
2019-04-06T22:16:33.801Z,14.20
2019-04-06T22:19:03.131Z,14.20
2019-04-06T22:21:32.470Z,14.20
2019-04-06T22:24:02.933Z,14.20
2019-04-06T22:26:32.852Z,14.20
2019-04-06T22:29:02.683Z,14.20
2019-04-06T22:31:32.337Z,14.10
2019-04-06T22:34:01.742Z,14.10
2019-04-06T22:36:31.088Z,14.00
2019-04-06T22:39:00.689Z,14.00
2019-04-06T22:41:31.757Z,14.00
2019-04-06T22:44:01.091Z,13.90
2019-04-06T22:46:30.433Z,13.90
2019-04-06T22:49:00.150Z,14.00
2019-04-06T22:51:29.979Z,13.90
2019-04-06T22:53:59.470Z,14.00
2019-04-06T22:56:29.360Z,13.90
2019-04-06T22:58:58.813Z,13.90
2019-04-06T23:01:29.804Z,13.90
2019-04-06T23:04:19.327Z,13.90
2019-04-06T23:06:50.431Z,13.90
2019-04-06T23:09:20.223Z,13.90
2019-04-06T23:11:50.396Z,13.90
2019-04-06T23:14:20.794Z,13.90
2019-04-06T23:16:50.302Z,13.90
2019-04-06T23:19:20.225Z,13.90
2019-04-06T23:21:49.804Z,13.90
2019-04-06T23:24:19.357Z,13.80
2019-04-06T23:26:48.851Z,13.90
2019-04-06T23:29:18.186Z,13.80
2019-04-06T23:31:47.527Z,13.90
2019-04-06T23:34:16.854Z,13.90
2019-04-06T23:36:46.350Z,13.90
2019-04-06T23:39:16.139Z,13.90
2019-04-06T23:41:45.514Z,13.90
2019-04-06T23:44:14.843Z,13.90
2019-04-06T23:46:44.186Z,13.90
2019-04-06T23:49:14.487Z,14.00
2019-04-06T23:51:43.850Z,13.90
2019-04-06T23:54:13.549Z,14.00
2019-04-06T23:56:42.999Z,14.00
2019-04-06T23:59:12.342Z,14.00
